Time;durP1;ratioP1;P1;durP2;ratioP2;P2;SDS_P1;SDS_P2;PMS_P1;PMS_P2;Temp;Humidity;BMP_temperature;BMP_pressure;BME280_temperature;BME280_humidity;BME280_pressure;Samples;Min_cycle;Max_cycle;Signal;HPM_P1;HPM_P2
2022/06/14 00:00:53;;;;;;;2.77;1.60;;;;;;;;;;5042501;28;20182;-89
2022/06/14 00:02:24;;;;;;;2.80;1.80;;;;;;;;;;5043624;28;20192;-90
2022/06/14 00:04:50;;;;;;;2.17;1.13;;;;;;;;;;5041918;28;20182;-88
2022/06/14 00:07:16;;;;;;;2.00;1.37;;;;;;;;;;5042633;28;20198;-85
2022/06/14 00:09:42;;;;;;;2.53;1.10;;;;;;;;;;5041926;28;20179;-86
2022/06/14 00:12:08;;;;;;;2.03;1.30;;;;;;;;;;5042365;28;20205;-88
2022/06/14 00:14:34;;;;;;;2.10;1.17;;;;;;;;;;5042590;28;20277;-89
2022/06/14 00:17:00;;;;;;;3.10;1.23;;;;;;;;;;5042247;28;20292;-88
2022/06/14 00:19:26;;;;;;;3.27;1.37;;;;;;;;;;5042554;28;20182;-89
2022/06/14 00:21:52;;;;;;;5.63;1.70;;;;;;;;;;5041992;28;20592;-89
2022/06/14 00:24:18;;;;;;;5.40;1.30;;;;;;;;;;5041936;28;20259;-86
2022/06/14 00:26:44;;;;;;;3.37;1.07;;;;;;;;;;5042586;28;20198;-91
2022/06/14 00:29:10;;;;;;;3.33;1.23;;;;;;;;;;5042474;28;20622;-87
2022/06/14 00:31:36;;;;;;;3.10;1.20;;;;;;;;;;5042118;28;20231;-88
2022/06/14 00:34:02;;;;;;;2.87;1.20;;;;;;;;;;5042261;28;20671;-90
2022/06/14 00:36:30;;;;;;;4.73;1.27;;;;;;;;;;5041305;28;20220;-84
2022/06/14 00:39:01;;;;;;;4.63;1.37;;;;;;;;;;5043696;28;20227;-89
2022/06/14 00:41:30;;;;;;;2.63;1.13;;;;;;;;;;5042403;28;20186;-87
2022/06/14 00:43:56;;;;;;;4.93;1.20;;;;;;;;;;5042946;28;20254;-89
2022/06/14 00:46:24;;;;;;;1.47;0.90;;;;;;;;;;5041561;28;20652;-86
2022/06/14 00:49:03;;;;;;;3.40;1.27;;;;;;;;;;5041926;28;20239;-88
2022/06/14 00:51:31;;;;;;;2.63;1.10;;;;;;;;;;5042244;28;20182;-88
2022/06/14 00:54:08;;;;;;;5.70;1.13;;;;;;;;;;5041715;28;20210;-87
2022/06/14 00:56:39;;;;;;;3.57;1.50;;;;;;;;;;5041684;28;20624;-87
2022/06/14 00:59:09;;;;;;;2.50;1.30;;;;;;;;;;5042101;28;20190;-90
2022/06/14 01:01:37;;;;;;;4.73;1.47;;;;;;;;;;5042412;28;20198;-89
2022/06/14 01:04:06;;;;;;;5.03;1.37;;;;;;;;;;5042074;28;20248;-90
2022/06/14 01:06:45;;;;;;;4.67;1.63;;;;;;;;;;5041781;28;20237;-90
2022/06/14 01:09:17;;;;;;;4.10;1.20;;;;;;;;;;5041458;28;20343;-88
2022/06/14 01:11:52;;;;;;;2.30;1.30;;;;;;;;;;5042466;28;20265;-89
2022/06/14 01:14:20;;;;;;;2.20;1.17;;;;;;;;;;5041743;28;20182;-89
2022/06/14 01:16:46;;;;;;;4.77;1.30;;;;;;;;;;5043559;28;20260;-90
2022/06/14 01:19:16;;;;;;;2.10;1.53;;;;;;;;;;5041294;28;20186;-90
2022/06/14 01:21:42;;;;;;;3.60;1.90;;;;;;;;;;5045844;28;20190;-90
2022/06/14 01:24:08;;;;;;;3.93;1.60;;;;;;;;;;5045985;28;20705;-89
2022/06/14 01:26:34;;;;;;;2.80;1.40;;;;;;;;;;5045227;28;20309;-90
2022/06/14 01:29:03;;;;;;;2.77;1.20;;;;;;;;;;5045820;28;20197;-87
2022/06/14 01:31:30;;;;;;;2.10;1.13;;;;;;;;;;5045284;28;20239;-86
2022/06/14 01:34:01;;;;;;;5.17;1.17;;;;;;;;;;5045595;28;21262;-90
2022/06/14 01:36:30;;;;;;;2.83;1.20;;;;;;;;;;5045871;28;20273;-90
2022/06/14 01:38:58;;;;;;;4.33;1.53;;;;;;;;;;5045775;28;20221;-91
2022/06/14 01:41:37;;;;;;;2.77;1.30;;;;;;;;;;5045034;28;20594;-89
2022/06/14 01:44:03;;;;;;;2.57;1.40;;;;;;;;;;5044900;28;20182;-89
2022/06/14 01:46:31;;;;;;;1.87;1.27;;;;;;;;;;5046150;28;20281;-88
2022/06/14 01:52:47;;;;;;;3.50;1.30;;;;;;;;;;5029783;28;20650;-91
2022/06/14 01:55:13;;;;;;;1.30;1.20;;;;;;;;;;4948389;28;20825;-87
2022/06/14 01:58:01;;;;;;;3.77;1.60;;;;;;;;;;4964400;28;20237;-87
2022/06/14 02:00:31;;;;;;;2.60;1.43;;;;;;;;;;5006109;28;20200;-91
2022/06/14 02:05:56;;;;;;;2.13;1.50;;;;;;;;;;5045058;28;20296;-88
2022/06/14 02:08:25;;;;;;;4.40;1.63;;;;;;;;;;5043741;28;20598;-89
2022/06/14 02:11:04;;;;;;;2.87;1.67;;;8.50;12.00;;;;;;5044167;28;20262;-89
2022/06/14 02:13:43;;;;;;;5.73;1.70;;;8.50;23.10;;;;;;5043633;28;20213;-93
2022/06/14 02:16:25;;;;;;;4.07;1.80;;;8.50;26.50;;;;;;5043611;28;20489;-87
2022/06/14 02:18:58;;;;;;;1.60;1.50;;;8.50;21.70;;;;;;5043706;28;20190;-89
2022/06/14 02:21:33;;;;;;;3.43;1.73;;;8.50;23.90;;;;;;5043650;28;20178;-91
2022/06/14 02:24:18;;;;;;;3.80;1.53;;;8.40;15.90;;;;;;5045556;28;20182;-91
2022/06/14 02:27:02;;;;;;;2.77;1.50;;;8.40;26.60;;;;;;5043522;28;20241;-92
2022/06/14 02:29:37;;;;;;;2.70;1.40;;;8.50;33.90;;;;;;5043714;28;20193;-87
2022/06/14 02:32:18;;;;;;;3.67;1.37;;;8.40;5.40;;;;;;5043049;28;20663;-92
2022/06/14 02:34:58;;;;;;;3.87;1.43;;;8.40;19.30;;;;;;5043760;28;20182;-91
2022/06/14 02:37:33;;;;;;;2.63;1.27;;;8.40;12.10;;;;;;5043851;28;20635;-87
2022/06/14 02:40:08;;;;;;;3.23;1.40;;;8.30;11.80;;;;;;5043498;28;20178;-89
2022/06/14 02:42:43;;;;;;;1.83;1.30;;;8.30;24.50;;;;;;5043619;28;20649;-89
2022/06/14 02:45:17;;;;;;;4.40;1.40;;;8.30;1.00;;;;;;5042952;28;20224;-91
2022/06/14 02:47:59;;;;;;;3.53;1.70;;;8.20;9.00;;;;;;5043188;28;20197;-90
2022/06/14 02:50:30;;;;;;;2.73;1.37;;;8.10;22.80;;;;;;5043175;28;20456;-87
2022/06/14 02:53:14;;;;;;;5.00;1.73;;;8.20;41.10;;;;;;5043206;28;20506;-88
2022/06/14 02:55:47;;;;;;;3.10;1.40;;;8.20;46.40;;;;;;5044629;28;20202;-90
2022/06/14 02:58:26;;;;;;;2.23;1.40;;;8.20;29.30;;;;;;5043321;28;20715;-85
2022/06/14 03:01:03;;;;;;;2.70;1.80;;;8.20;32.50;;;;;;5043025;28;20194;-87
2022/06/14 03:03:33;;;;;;;5.50;1.47;;;8.20;42.00;;;;;;5043115;28;20663;-88
2022/06/14 03:06:11;;;;;;;1.67;1.40;;;8.30;29.50;;;;;;5042996;28;20245;-90
2022/06/14 03:08:45;;;;;;;1.80;1.40;;;8.30;34.50;;;;;;5042459;28;20292;-89
2022/06/14 03:11:43;;;;;;;2.70;1.53;;;8.30;31.30;;;;;;5043465;28;20644;-91
2022/06/14 03:14:34;;;;;;;4.03;1.80;;;8.30;34.50;;;;;;5043280;28;20281;-90
2022/06/14 03:17:19;;;;;;;3.83;1.50;;;8.20;31.10;;;;;;5042760;28;20692;-89
2022/06/14 03:20:05;;;;;;;3.03;1.50;;;8.30;40.90;;;;;;5044209;28;20183;-87
2022/06/14 03:22:43;;;;;;;2.67;1.40;;;8.30;43.50;;;;;;5042725;28;20190;-88
2022/06/14 03:25:29;;;;;;;2.67;1.57;;;8.30;45.40;;;;;;5041979;28;20198;-89
2022/06/14 03:28:04;;;;;;;3.90;1.53;;;8.30;39.80;;;;;;5059046;28;20209;-87
2022/06/14 03:30:42;;;;;;;3.53;1.43;;;8.30;43.60;;;;;;5042017;28;20186;-91
2022/06/14 03:33:17;;;;;;;4.17;1.70;;;8.40;37.90;;;;;;5042962;28;20186;-89
2022/06/14 03:35:47;;;;;;;4.83;1.77;;;8.30;26.80;;;;;;5043308;28;20247;-89
2022/06/14 03:38:32;;;;;;;2.27;1.50;;;8.40;28.20;;;;;;5042339;28;20617;-89
2022/06/14 03:40:58;;;;;;;1.70;1.37;;;8.30;27.40;;;;;;5042451;28;20563;-89
2022/06/14 03:43:24;;;;;;;2.77;1.50;;;8.40;49.70;;;;;;5043136;28;20193;-89
2022/06/14 03:46:02;;;;;;;5.73;2.00;;;8.40;35.00;;;;;;5026208;28;20214;-88
2022/06/14 03:48:29;;;;;;;3.17;1.60;;;8.40;26.00;;;;;;5042250;28;20197;-90
2022/06/14 03:51:31;;;;;;;2.27;1.50;;;8.40;15.00;;;;;;5042307;28;20186;-90
2022/06/14 03:54:24;;;;;;;3.83;1.40;;;8.50;19.30;;;;;;5041998;28;20729;-90
2022/06/14 03:57:05;;;;;;;1.80;1.50;;;8.60;8.40;;;;;;5041860;28;20205;-88
2022/06/14 03:59:46;;;;;;;5.53;1.70;;;8.70;10.80;;;;;;5041786;28;20232;-88
2022/06/14 04:02:53;;;;;;;2.00;1.50;;;8.80;13.60;;;;;;5042246;28;20186;-90
2022/06/14 04:05:18;;;;;;;1.93;1.53;;;8.90;1.60;;;;;;5042254;28;20208;-89
2022/06/14 04:07:58;;;;;;;3.63;1.40;;;9.00;1.00;;;;;;5041416;28;20216;-88
2022/06/14 04:10:27;;;;;;;2.97;1.60;;;9.10;1.00;;;;;;5041815;28;20331;-91
2022/06/14 04:12:56;;;;;;;3.90;1.50;;;9.30;1.00;;;;;;5042110;28;20272;-89
2022/06/14 04:15:53;;;;;;;2.70;1.40;;;9.40;1.00;;;;;;5041541;28;20220;-88
2022/06/14 04:18:35;;;;;;;5.97;1.60;;;9.60;1.00;;;;;;5042527;28;20210;-89
2022/06/14 04:21:25;;;;;;;2.43;1.63;;;9.80;1.00;;;;;;5042721;28;20277;-90
2022/06/14 04:24:07;;;;;;;2.57;1.50;;;10.00;1.00;;;;;;5044064;28;20904;-91
2022/06/14 04:26:53;;;;;;;2.73;1.40;;;10.10;1.00;;;;;;5044980;28;20232;-88
2022/06/14 04:29:25;;;;;;;3.87;1.97;;;10.30;1.00;;;;;;5044588;28;20200;-90
2022/06/14 04:32:00;;;;;;;3.20;1.60;;;10.50;1.00;;;;;;5044720;28;20186;-89
2022/06/14 04:34:50;;;;;;;3.63;1.60;;;10.70;1.00;;;;;;5046148;28;20179;-87
2022/06/14 04:37:23;;;;;;;3.83;1.57;;;10.90;1.00;;;;;;5044160;28;20202;-89
2022/06/14 04:39:58;;;;;;;2.97;1.53;;;11.20;1.00;;;;;;5044259;28;20269;-91
2022/06/14 04:42:39;;;;;;;4.07;1.50;;;11.40;1.00;;;;;;5044426;28;20651;-89
2022/06/14 04:45:11;;;;;;;2.37;1.33;;;11.60;1.00;;;;;;5044031;28;20201;-86
2022/06/14 04:47:52;;;;;;;4.87;1.33;;;11.70;1.00;;;;;;5045311;28;20198;-89
2022/06/14 04:50:23;;;;;;;3.23;1.53;;;11.70;1.00;;;;;;5044796;28;20699;-91
2022/06/14 04:52:53;;;;;;;3.40;1.87;;;11.80;1.00;;;;;;5044692;28;20186;-91
2022/06/14 04:55:28;;;;;;;2.87;1.63;;;11.90;1.00;;;;;;5046438;28;20198;-91
2022/06/14 04:58:01;;;;;;;3.33;1.80;;;11.90;1.00;;;;;;5049727;28;20289;-90
2022/06/14 05:00:43;;;;;;;3.73;1.50;;;12.00;1.00;;;;;;5046075;28;20189;-91
2022/06/14 05:03:15;;;;;;;2.27;1.60;;;12.20;1.00;;;;;;5047755;28;20189;-90
2022/06/14 05:06:02;;;;;;;2.20;1.67;;;12.50;1.00;;;;;;5048585;28;20198;-87
2022/06/14 05:08:35;;;;;;;1.97;1.40;;;12.70;1.00;;;;;;5064747;28;20260;-90
2022/06/14 05:11:19;;;;;;;2.37;1.50;;;12.80;1.00;;;;;;5049121;28;20667;-88
2022/06/14 05:14:08;;;;;;;2.63;1.60;;;12.70;1.00;;;;;;5064480;28;20182;-89
2022/06/14 05:16:38;;;;;;;2.22;1.65;;;12.60;1.00;;;;;;5048250;28;20191;-90
2022/06/14 05:19:19;;;;;;;3.23;1.60;;;12.60;1.00;;;;;;5047932;28;20271;-90
2022/06/14 05:22:08;;;;;;;3.47;1.52;;;12.60;1.00;;;;;;5048190;28;20576;-91
2022/06/14 05:24:35;;;;;;;3.13;1.33;;;12.80;1.00;;;;;;5047539;28;20195;-90
2022/06/14 05:27:25;;;;;;;3.70;1.60;;;12.80;1.00;;;;;;5048251;28;20210;-90
2022/06/14 05:30:23;;;;;;;1.67;1.40;;;13.00;1.00;;;;;;5047039;28;20182;-90
2022/06/14 05:33:12;;;;;;;4.10;1.50;;;13.30;1.00;;;;;;5028733;28;20248;-90
2022/06/14 05:35:44;;;;;;;3.25;1.48;;;14.10;1.00;;;;;;5044370;28;20268;-90
2022/06/14 05:38:32;;;;;;;4.13;1.70;;;14.60;1.00;;;;;;5044671;28;20233;-89
2022/06/14 05:41:04;;;;;;;4.63;1.45;;;15.30;99.90;;;;;;5044003;28;20186;-92
2022/06/14 05:43:51;;;;;;;2.20;1.50;;;15.60;22.40;;;;;;5044329;28;20276;-91
2022/06/14 05:46:30;;;;;;;5.32;1.85;;;16.00;99.90;;;;;;5046033;28;20216;-89
2022/06/14 05:49:29;;;;;;;4.20;1.58;;;16.70;1.00;;;;;;5044949;28;20204;-91
2022/06/14 05:52:17;;;;;;;3.15;1.20;;;17.20;1.00;;;;;;5039819;28;20205;-90
2022/06/14 05:55:05;;;;;;;5.40;1.60;;;17.80;1.00;;;;;;5044759;28;20285;-90
2022/06/14 05:57:31;;;;;;;3.35;1.20;;;18.60;1.00;;;;;;5044208;28;20299;-90
2022/06/14 06:00:06;;;;;;;4.88;1.30;;;19.20;1.00;;;;;;5044778;28;20740;-91
2022/06/14 06:03:10;;;;;;;4.47;1.50;;;19.10;99.90;;;;;;5044154;28;20196;-91
2022/06/14 06:05:50;;;;;;;5.00;1.73;;;18.70;99.90;;;;;;5008192;28;20472;-92
2022/06/14 06:08:18;;;;;;;3.45;1.35;;;18.10;1.00;;;;;;5043993;28;20209;-88
2022/06/14 06:10:48;;;;;;;1.88;1.33;;;18.10;1.00;;;;;;5045818;28;20178;-90
2022/06/14 06:13:30;;;;;;;5.30;1.50;;;18.10;1.00;;;;;;5047606;28;20183;-88
2022/06/14 06:16:10;;;;;;;4.32;1.60;;;18.40;1.00;;;;;;5046308;28;20184;-90
2022/06/14 06:18:47;;;;;;;4.00;1.95;;;18.60;99.90;;;;;;5047722;28;20691;-85
2022/06/14 06:21:18;;;;;;;3.63;1.50;;;19.40;65.00;;;;;;5046158;28;20189;-87
2022/06/14 06:23:50;;;;;;;4.97;1.85;;;19.30;1.00;;;;;;5045699;28;20178;-85
2022/06/14 06:26:21;;;;;;;4.00;1.52;;;19.30;1.00;;;;;;5046196;28;20257;-84
2022/06/14 06:28:54;;;;;;;5.65;1.92;;;18.90;1.00;;;;;;5047655;28;20170;-85
2022/06/14 06:31:32;;;;;;;2.28;1.55;;;18.40;11.10;;;;;;5045315;28;20691;-84
2022/06/14 06:34:02;;;;;;;3.42;1.42;;;18.00;99.90;;;;;;5045736;28;20197;-86
2022/06/14 06:36:46;;;;;;;5.03;1.80;;;17.70;1.00;;;;;;5046019;28;20182;-85
2022/06/14 06:39:43;;;;;;;3.55;1.30;;;17.50;99.90;;;;;;5046474;28;20186;-85
2022/06/14 06:42:19;;;;;;;6.68;2.08;;;17.20;1.00;;;;;;5047060;28;20201;-84
2022/06/14 06:45:11;;;;;;;3.65;1.42;;;17.10;96.60;;;;;;5045732;28;20264;-85
2022/06/14 06:47:42;;;;;;;3.35;1.50;;;17.00;1.00;;;;;;5045969;28;20259;-85
2022/06/14 06:50:22;;;;;;;6.97;1.52;;;16.60;99.90;;;;;;5046250;28;20656;-85
2022/06/14 06:52:56;;;;;;;3.95;1.95;;;16.90;99.90;;;;;;5047095;28;20539;-84
2022/06/14 06:55:43;;;;;;;5.00;1.83;;;17.30;99.90;;;;;;5046490;28;20916;-86
2022/06/14 06:58:25;;;;;;;2.55;1.17;;;18.30;99.90;;;;;;5043178;28;20301;-85
2022/06/14 07:00:55;;;;;;;5.10;1.42;;;19.70;99.90;;;;;;5043160;28;20661;-85
2022/06/14 07:03:39;;;;;;;1.92;1.10;;;20.70;1.00;;;;;;5042983;28;20556;-86
2022/06/14 07:06:07;;;;;;;3.22;1.50;;;21.60;99.90;;;;;;5042787;28;20289;-85
2022/06/14 07:08:40;;;;;;;3.05;1.20;;;21.70;99.90;;;;;;5043204;28;20209;-86
2022/06/14 07:11:12;;;;;;;3.90;1.40;;;22.10;99.90;;;;;;5044167;28;20190;-86
2022/06/14 07:13:53;;;;;;;3.25;1.10;;;22.60;99.90;;;;;;5043056;28;20179;-87
2022/06/14 07:16:30;;;;;;;3.97;1.00;;;22.70;99.90;;;;;;5046492;28;20186;-85
2022/06/14 07:19:14;;;;;;;3.38;1.30;;;23.10;99.90;;;;;;5046262;28;20185;-85
2022/06/14 07:21:49;;;;;;;3.80;1.35;;;23.10;99.90;;;;;;5045233;28;20250;-86
2022/06/14 07:24:18;;;;;;;4.15;1.08;;;23.30;85.90;;;;;;5046174;28;20197;-87
2022/06/14 07:26:57;;;;;;;2.15;1.30;;;23.90;92.80;;;;;;5046059;28;20532;-87
2022/06/14 07:29:29;;;;;;;4.35;1.58;;;24.00;34.60;;;;;;5046540;28;20184;-86
2022/06/14 07:31:58;;;;;;;5.00;1.40;;;23.10;14.30;;;;;;5045894;28;20174;-85
2022/06/14 07:34:26;;;;;;;3.03;1.00;;;22.10;26.00;;;;;;5046406;28;20217;-86
2022/06/14 07:37:47;;;;;;;4.00;1.23;;;21.80;61.10;;;;;;5045829;28;20293;-87
2022/06/14 07:40:50;;;;;;;3.80;1.25;;;21.60;99.90;;;;;;4955378;28;20674;-88
2022/06/14 07:43:51;;;;;;;3.38;0.95;;;21.30;99.90;;;;;;4985521;28;20184;-86
2022/06/14 07:48:49;;;;;;;5.55;1.52;;;20.40;99.90;;;;;;5083328;23;20236;-75
2022/06/14 07:51:42;;;;;;;1.73;1.35;;;20.20;99.90;;;;;;5086248;28;20183;-74
2022/06/14 07:54:21;;;;;;;10.65;1.90;;;19.70;99.90;;;;;;5085448;28;20173;-73
2022/06/14 07:56:53;;;;;;;4.35;1.60;;;19.40;99.90;;;;;;5085510;28;20204;-73
2022/06/14 07:59:46;;;;;;;3.72;1.48;;;19.50;99.90;;;;;;5085534;28;20267;-74
2022/06/14 08:02:19;;;;;;;3.90;1.75;;;19.60;99.90;;;;;;5086438;28;20706;-75
2022/06/14 08:04:53;;;;;;;2.80;1.33;;;19.70;99.90;;;;;;5085079;28;20184;-73
2022/06/14 08:07:20;;;;;;;4.20;1.40;;;19.90;99.90;;;;;;5085780;28;20210;-73
2022/06/14 08:10:00;;;;;;;3.95;1.58;;;19.90;99.90;;;;;;5085167;28;21088;-73
2022/06/14 08:12:51;;;;;;;2.53;1.63;;;19.60;99.90;;;;;;5085647;28;20180;-73
2022/06/14 08:15:30;;;;;;;5.90;1.40;;;19.40;99.90;;;;;;5084711;28;20181;-73
2022/06/14 08:18:01;;;;;;;4.60;1.23;;;19.30;99.90;;;;;;5085032;28;20203;-72
2022/06/14 08:20:44;;;;;;;2.40;1.13;;;19.20;99.90;;;;;;5085272;28;20207;-73
2022/06/14 08:23:28;;;;;;;2.85;1.15;;;19.40;99.90;;;;;;5085776;28;20181;-74
2022/06/14 08:26:00;;;;;;;3.90;1.33;;;19.70;99.90;;;;;;5085821;28;20204;-71
2022/06/14 08:28:38;;;;;;;1.60;0.93;;;19.50;99.90;;;;;;5085439;28;20609;-72
2022/06/14 08:31:17;;;;;;;1.92;1.08;;;19.30;99.90;;;;;;5084377;28;20641;-72
2022/06/14 08:34:13;;;;;;;3.05;1.00;;;19.20;99.90;;;;;;5084267;28;20177;-73
2022/06/14 08:36:46;;;;;;;3.88;1.42;;;19.10;99.90;;;;;;5085198;28;20573;-73
2022/06/14 08:39:19;;;;;;;3.58;1.10;;;19.30;99.90;;;;;;5086075;28;20187;-72
2022/06/14 08:41:58;;;;;;;3.88;1.25;;;19.50;99.90;;;;;;5084893;28;20192;-67
2022/06/14 08:44:32;;;;;;;2.00;0.90;;;19.50;99.90;;;;;;5084148;28;20323;-66
2022/06/14 08:47:32;;;;;;;3.08;1.15;;;19.30;99.90;;;;;;5083960;28;20217;-66
2022/06/14 08:50:26;;;;;;;2.30;1.20;;;19.00;99.90;;;;;;5083894;28;20180;-68
2022/06/14 08:53:02;;;;;;;2.97;0.90;;;19.00;99.90;;;;;;5084667;28;20208;-66
2022/06/14 08:55:33;;;;;;;3.42;1.30;;;19.10;99.90;;;;;;5083783;28;20184;-68
2022/06/14 08:58:25;;;;;;;3.03;1.10;;;18.90;99.90;;;;;;5084440;28;20200;-67
2022/06/14 09:01:09;;;;;;;3.55;1.13;;;18.90;99.90;;;;;;5084058;28;20188;-68
2022/06/14 09:04:10;;;;;;;3.88;1.00;;;19.00;99.90;;;;;;5081880;28;20230;-68
2022/06/14 09:06:52;;;;;;;2.72;1.02;;;18.90;99.90;;;;;;5080742;28;20691;-68
2022/06/14 09:09:25;;;;;;;4.25;1.33;;;18.70;99.90;;;;;;5082742;28;20255;-63
2022/06/14 09:12:26;;;;;;;3.25;0.90;;;18.70;99.90;;;;;;5064484;28;20178;-66
2022/06/14 09:15:12;;;;;;;3.92;1.13;;;18.90;99.90;;;;;;5081988;28;20173;-68
2022/06/14 09:18:02;;;;;;;3.60;1.20;;;19.10;99.90;;;;;;5083304;28;20201;-70
2022/06/14 09:20:55;;;;;;;4.18;1.30;;;19.20;99.90;;;;;;5082806;28;20200;-69
2022/06/14 09:23:45;;;;;;;2.47;1.00;;;19.10;99.90;;;;;;5082434;28;20177;-66
2022/06/14 09:26:45;;;;;;;3.85;0.90;;;19.00;99.90;;;;;;5066472;28;20718;-70
2022/06/14 09:29:44;;;;;;;3.67;1.05;;;18.90;99.90;;;;;;5066438;28;20273;-67
2022/06/14 09:32:31;;;;;;;3.58;1.13;;;18.90;99.90;;;;;;5082182;28;20220;-65
2022/06/14 09:35:22;;;;;;;3.58;1.20;;;18.80;99.90;;;;;;5080537;28;20177;-65
2022/06/14 09:38:09;;;;;;;2.15;0.90;;;19.00;99.90;;;;;;5066085;28;20262;-66
2022/06/14 09:41:03;;;;;;;4.05;1.30;;;19.00;99.90;;;;;;5083485;28;20169;-64
2022/06/14 09:43:36;;;;;;;2.72;1.10;;;19.20;99.90;;;;;;5068378;28;20177;-65
2022/06/14 09:46:08;;;;;;;2.90;0.90;;;19.20;99.90;;;;;;5085991;28;20232;-66
2022/06/14 09:49:25;;;;;;;3.33;1.10;;;19.00;99.90;;;;;;5087061;28;20276;-67
2022/06/14 09:52:03;;;;;;;1.55;0.90;;;19.00;99.90;;;;;;5082973;28;20185;-65
2022/06/14 09:54:41;;;;;;;4.00;0.95;;;18.90;99.90;;;;;;5067750;28;20234;-66
2022/06/14 09:57:35;;;;;;;2.75;1.25;;;19.10;99.90;;;;;;5068363;28;20189;-66
2022/06/14 10:00:19;;;;;;;3.05;1.05;;;19.30;99.90;;;;;;5067881;28;20230;-69
2022/06/14 10:03:22;;;;;;;3.58;1.20;;;19.40;99.90;;;;;;5086421;28;20647;-67
2022/06/14 10:05:58;;;;;;;3.85;1.00;;;19.70;99.90;;;;;;5085323;28;20702;-65
2022/06/14 10:09:03;;;;;;;1.38;1.05;;;19.90;98.60;;;;;;5086456;28;20325;-64
2022/06/14 10:12:05;;;;;;;1.60;0.80;;;20.20;99.90;;;;;;5067852;28;20173;-65
2022/06/14 10:14:31;;;;;;;2.38;0.90;;;20.20;90.50;;;;;;5085683;28;20187;-65
2022/06/14 10:17:00;;;;;;;1.98;0.95;;;20.00;97.00;;;;;;5067382;28;20278;-65
2022/06/14 10:19:27;;;;;;;5.00;1.15;;;19.70;93.80;;;;;;5086657;28;20679;-65
2022/06/14 10:22:17;;;;;;;4.68;1.48;;;19.60;99.90;;;;;;5067928;28;20173;-64
2022/06/14 10:24:58;;;;;;;2.30;0.90;;;19.70;93.70;;;;;;5051109;28;20283;-68
2022/06/14 10:31:09;;;;;;;4.10;1.05;;;19.70;98.90;;;;;;5085668;28;20227;-68
2022/06/14 10:34:21;;;;;;;1.67;0.80;;;19.80;82.30;;;;;;5083931;28;20169;-65
2022/06/14 10:37:25;;;;;;;2.33;0.70;;;19.80;58.10;;;;;;5070901;28;20865;-67
2022/06/14 10:39:51;;;;;;;3.13;0.95;;;19.60;44.50;;;;;;5084058;28;20173;-65
2022/06/14 10:42:50;;;;;;;4.07;1.15;;;19.30;30.30;;;;;;5067739;28;20184;-66
2022/06/14 10:45:31;;;;;;;2.63;0.90;;;19.40;44.50;;;;;;5051934;28;20527;-68
2022/06/14 10:48:07;;;;;;;2.58;0.90;;;19.40;45.80;;;;;;5084772;28;20347;-64
2022/06/14 10:51:04;;;;;;;3.17;0.88;;;19.20;60.70;;;;;;5067379;28;20180;-66
2022/06/14 10:53:55;;;;;;;2.28;0.88;;;19.10;51.80;;;;;;5040859;28;20727;-65
2022/06/14 10:56:46;;;;;;;4.55;1.05;;;19.30;69.90;;;;;;5083253;28;20173;-66
2022/06/14 10:59:34;;;;;;;3.17;1.00;;;19.40;63.80;;;;;;5068331;28;20192;-66
2022/06/14 11:02:22;;;;;;;2.70;1.05;;;19.40;62.00;;;;;;5066807;28;20181;-67
2022/06/14 11:05:21;;;;;;;2.75;1.17;;;19.60;52.10;;;;;;5065662;28;20209;-66
2022/06/14 11:08:05;;;;;;;2.50;0.98;;;19.60;32.00;;;;;;5066450;28;20258;-66
2022/06/14 11:10:53;;;;;;;3.20;1.00;;;19.60;50.10;;;;;;5066139;28;20592;-67
2022/06/14 11:13:44;;;;;;;4.10;1.30;;;19.40;26.70;;;;;;5084800;28;20204;-65
2022/06/14 11:16:27;;;;;;;1.77;0.80;;;19.20;49.20;;;;;;5066803;28;20651;-69
2022/06/14 11:19:04;;;;;;;2.90;1.13;;;19.40;58.60;;;;;;5067232;28;20553;-64
2022/06/14 11:21:33;;;;;;;1.92;0.90;;;19.50;48.40;;;;;;5083310;28;20706;-66
2022/06/14 11:24:12;;;;;;;2.10;0.80;;;19.00;41.10;;;;;;5066227;28;20195;-66
2022/06/14 11:26:54;;;;;;;3.03;1.20;;;19.20;64.00;;;;;;5066046;28;20713;-66
2022/06/14 11:29:25;;;;;;;1.13;0.80;;;19.40;46.70;;;;;;5083984;28;20185;-66
2022/06/14 11:32:25;;;;;;;1.55;0.85;;;19.70;58.40;;;;;;5083920;28;20560;-67
2022/06/14 11:35:22;;;;;;;2.50;1.00;;;19.90;25.60;;;;;;5064645;28;20656;-65
2022/06/14 11:38:14;;;;;;;2.33;1.08;;;20.10;29.20;;;;;;5065570;28;20193;-70
2022/06/14 11:40:51;;;;;;;2.47;1.13;;;20.50;28.40;;;;;;5084248;28;20414;-70
2022/06/14 11:43:53;;;;;;;1.90;0.98;;;20.70;10.20;;;;;;5084599;28;20193;-70
2022/06/14 11:46:45;;;;;;;2.97;1.10;;;20.70;2.40;;;;;;5084107;28;20196;-68
2022/06/14 11:49:19;;;;;;;4.60;1.15;;;20.60;1.00;;;;;;5084591;28;20187;-68
2022/06/14 11:52:18;;;;;;;2.25;0.80;;;20.40;13.00;;;;;;5084362;28;20549;-68
2022/06/14 11:55:25;;;;;;;3.17;1.05;;;20.80;17.80;;;;;;5082891;28;20519;-66
2022/06/14 11:57:59;;;;;;;2.60;0.88;;;20.90;13.70;;;;;;5083446;28;20291;-69
2022/06/14 12:00:54;;;;;;;2.35;0.80;;;20.80;1.00;;;;;;5083987;28;20192;-70
2022/06/14 12:03:39;;;;;;;2.20;1.00;;;20.20;1.00;;;;;;5083533;28;20743;-70
2022/06/14 12:06:24;;;;;;;2.78;0.90;;;20.00;18.10;;;;;;5082566;28;20679;-67
2022/06/14 12:09:27;;;;;;;2.38;1.00;;;20.10;5.40;;;;;;5067365;28;20188;-69
2022/06/14 12:11:52;;;;;;;3.13;0.98;;;20.40;6.00;;;;;;5089760;28;20927;-68
2022/06/14 12:14:56;;;;;;;3.15;0.95;;;20.60;8.90;;;;;;5090200;28;20181;-67
2022/06/14 12:18:01;;;;;;;2.58;1.02;;;20.90;4.10;;;;;;5088464;28;20208;-68
2022/06/14 12:20:31;;;;;;;3.63;1.23;;;21.00;1.00;;;;;;5086885;28;20273;-68
2022/06/14 12:23:15;;;;;;;4.72;0.93;;;21.00;1.00;;;;;;5085564;28;20177;-68
2022/06/14 12:28:47;;;;;;;1.92;0.90;;;20.40;3.80;;;;;;5084276;28;20211;-70
2022/06/14 12:31:35;;;;;;;4.38;1.23;;;20.70;6.50;;;;;;5083776;28;20177;-68
2022/06/14 12:34:21;;;;;;;1.35;0.90;;;20.70;4.10;;;;;;5082473;28;20177;-67
2022/06/14 12:37:10;;;;;;;2.63;1.25;;;20.60;1.00;;;;;;5071906;28;20557;-67
2022/06/14 12:40:01;;;;;;;2.97;0.93;;;20.50;1.00;;;;;;5084065;28;20184;-67
2022/06/14 12:42:41;;;;;;;2.88;1.35;;;20.40;1.00;;;;;;5083792;28;20177;-68
2022/06/14 12:45:17;;;;;;;3.30;1.02;;;20.70;2.40;;;;;;5082259;28;20251;-67
2022/06/14 12:48:07;;;;;;;2.00;1.02;;;20.80;3.90;;;;;;5082877;28;20220;-68
2022/06/14 12:51:43;;;;;;;4.32;1.00;;;20.90;1.00;;;;;;5083062;28;20267;-68
2022/06/14 12:54:15;;;;;;;3.17;0.70;;;20.50;1.00;;;;;;4976273;28;20202;-68
2022/06/14 12:56:51;;;;;;;1.55;0.80;;;20.70;1.00;;;;;;5020543;28;20245;-67
2022/06/14 12:59:33;;;;;;;3.00;0.90;;;20.80;1.00;;;;;;5070033;28;20207;-68
2022/06/14 13:01:58;;;;;;;3.63;1.25;;;20.60;1.00;;;;;;5064141;28;20177;-68
2022/06/14 13:04:46;;;;;;;2.38;0.90;;;20.40;1.00;;;;;;5082028;28;20188;-68
2022/06/14 13:07:37;;;;;;;2.00;0.98;;;20.30;1.00;;;;;;5082360;28;20213;-69
2022/06/14 13:10:24;;;;;;;2.50;0.85;;;20.20;1.00;;;;;;5082665;28;20270;-70
2022/06/14 13:12:54;;;;;;;4.25;1.30;;;20.20;1.00;;;;;;5082412;28;20539;-68
2022/06/14 13:15:31;;;;;;;1.92;0.80;;;20.00;1.00;;;;;;5082135;28;20177;-70
2022/06/14 13:18:11;;;;;;;1.60;0.95;;;20.10;1.00;;;;;;5068610;28;20242;-67
2022/06/14 13:20:59;;;;;;;4.13;1.73;;;20.40;1.00;;;;;;5086998;28;20180;-69
2022/06/14 13:23:39;;;;;;;4.35;1.08;;;20.50;1.00;;;;;;5087255;28;20173;-68
2022/06/14 13:26:41;;;;;;;2.17;1.00;;;20.80;1.00;;;;;;5068107;28;20200;-69
2022/06/14 13:29:16;;;;;;;1.77;0.95;;;20.80;1.00;;;;;;5086859;28;20177;-67
2022/06/14 13:32:19;;;;;;;4.20;1.13;;;20.70;1.00;;;;;;5068444;28;20187;-69
2022/06/14 13:34:55;;;;;;;3.30;1.30;;;20.10;1.00;;;;;;5085183;28;20180;-68
2022/06/14 13:37:46;;;;;;;2.38;1.00;;;20.20;1.00;;;;;;5086451;28;20250;-68
2022/06/14 13:40:31;;;;;;;4.63;1.20;;;20.20;1.00;;;;;;5086164;28;20565;-69
2022/06/14 13:43:15;;;;;;;2.65;1.30;;;20.50;5.30;;;;;;5068541;28;20535;-67
2022/06/14 13:45:59;;;;;;;2.53;1.08;;;20.20;4.70;;;;;;5085659;28;20298;-66
2022/06/14 13:48:33;;;;;;;3.08;1.38;;;20.40;3.90;;;;;;5086603;28;20304;-68
2022/06/14 13:51:08;;;;;;;2.45;1.05;;;20.60;1.90;;;;;;5085436;28;20203;-69
2022/06/14 13:54:03;;;;;;;2.00;0.82;;;20.80;2.50;;;;;;5085441;28;20178;-69
2022/06/14 13:56:34;;;;;;;2.97;1.00;;;20.90;1.00;;;;;;5067249;28;20713;-68
2022/06/14 13:59:22;;;;;;;2.33;1.02;;;21.10;1.70;;;;;;5086643;28;20184;-68
2022/06/14 14:02:07;;;;;;;3.30;1.00;;;21.30;1.00;;;;;;5085980;28;20256;-68
2022/06/14 14:04:47;;;;;;;2.33;0.90;;;21.20;1.00;;;;;;5085183;28;20193;-71
2022/06/14 14:07:27;;;;;;;1.42;0.77;;;21.10;1.00;;;;;;5085833;28;20299;-68
2022/06/14 14:10:23;;;;;;;4.10;1.23;;;21.00;1.00;;;;;;5086559;28;20644;-69
2022/06/14 14:12:56;;;;;;;3.13;0.90;;;21.00;1.00;;;;;;5085535;28;20207;-69
2022/06/14 14:15:46;;;;;;;3.22;0.95;;;20.90;1.00;;;;;;5066511;28;20292;-69
2022/06/14 14:18:40;;;;;;;2.35;1.00;;;20.90;1.00;;;;;;5084443;28;20189;-68
2022/06/14 14:21:26;;;;;;;4.88;1.00;;;20.80;1.00;;;;;;5085337;28;20197;-69
2022/06/14 14:24:11;;;;;;;3.25;1.20;;;20.90;1.00;;;;;;5084652;28;20177;-67
2022/06/14 14:26:48;;;;;;;3.58;1.25;;;20.90;1.00;;;;;;5084236;28;20580;-67
2022/06/14 14:29:25;;;;;;;2.92;0.95;;;20.90;1.00;;;;;;5085636;28;20180;-69
2022/06/14 14:32:09;;;;;;;1.60;1.42;;;20.90;1.00;;;;;;5085286;28;20179;-68